createdAt,value
2018-06-10T00:00:38.531Z,8.83
2018-06-10T00:03:05.349Z,8.97
2018-06-10T00:05:32.229Z,9.05
2018-06-10T00:07:59.082Z,9.47
2018-06-10T00:10:25.917Z,9.85
2018-06-10T00:12:52.744Z,8.58
2018-06-10T00:15:19.558Z,8.73
2018-06-10T00:17:46.381Z,8.73
2018-06-10T00:20:13.283Z,9.23
2018-06-10T00:22:40.105Z,9.73
2018-06-10T00:25:06.948Z,9.67
2018-06-10T00:27:33.789Z,9.40
2018-06-10T00:30:00.612Z,8.20
2018-06-10T00:32:27.498Z,9.27
2018-06-10T00:34:54.324Z,8.33
2018-06-10T00:37:21.175Z,8.83
2018-06-10T00:39:48.005Z,8.90
2018-06-10T00:42:14.838Z,10.23
2018-06-10T00:44:41.656Z,8.90
2018-06-10T00:47:08.841Z,8.70
2018-06-10T00:49:35.646Z,8.67
2018-06-10T00:52:02.476Z,9.23
2018-06-10T00:54:29.297Z,9.03
2018-06-10T00:56:56.118Z,9.13
2018-06-10T00:59:22.940Z,8.57
2018-06-10T01:01:49.814Z,8.95
2018-06-10T01:04:16.637Z,9.05
2018-06-10T01:06:43.505Z,9.03
2018-06-10T01:09:10.323Z,9.40
2018-06-10T01:11:37.142Z,8.60
2018-06-10T01:14:03.964Z,8.57
2018-06-10T01:16:30.875Z,9.60
2018-06-10T01:18:57.707Z,9.60
2018-06-10T01:21:24.529Z,8.70
2018-06-10T01:23:51.390Z,9.13
2018-06-10T01:26:18.243Z,8.23
2018-06-10T01:28:45.060Z,8.47
2018-06-10T01:31:11.887Z,9.48
2018-06-10T01:33:38.710Z,8.73
2018-06-10T01:36:05.612Z,9.20
2018-06-10T01:38:32.442Z,9.60
2018-06-10T01:40:59.269Z,8.50
2018-06-10T01:43:26.103Z,8.23
2018-06-10T01:45:52.983Z,8.63
2018-06-10T01:48:19.819Z,9.07
2018-06-10T01:50:46.639Z,8.80
2018-06-10T01:53:13.465Z,9.30
2018-06-10T01:55:40.352Z,8.93
2018-06-10T01:58:07.172Z,8.73
2018-06-10T02:00:34.006Z,9.23
2018-06-10T02:03:00.837Z,9.20
2018-06-10T02:05:27.721Z,9.90
2018-06-10T02:07:54.546Z,9.87
2018-06-10T02:10:21.376Z,8.80
2018-06-10T02:12:48.201Z,8.80
2018-06-10T02:15:15.023Z,8.50
2018-06-10T02:17:41.863Z,9.10
2018-06-10T02:20:08.682Z,9.55
2018-06-10T02:22:35.918Z,10.00
2018-06-10T02:25:02.656Z,9.78
2018-06-10T02:27:29.505Z,9.68
2018-06-10T02:29:56.327Z,8.70
2018-06-10T02:32:23.155Z,9.67
2018-06-10T02:34:49.986Z,10.67
2018-06-10T02:37:16.902Z,9.60
2018-06-10T02:39:43.732Z,9.70
2018-06-10T02:42:10.567Z,9.20
2018-06-10T02:44:37.390Z,10.50
2018-06-10T02:47:04.264Z,9.95
2018-06-10T02:49:31.091Z,10.30
2018-06-10T02:51:57.917Z,9.28
2018-06-10T02:54:24.749Z,9.60
2018-06-10T02:56:51.680Z,9.40
2018-06-10T02:59:18.471Z,8.90
2018-06-10T03:01:45.314Z,10.10
2018-06-10T03:04:12.150Z,9.37
2018-06-10T03:06:38.998Z,9.77
2018-06-10T03:09:05.825Z,9.83
2018-06-10T03:11:32.896Z,9.80
2018-06-10T03:13:59.724Z,10.00
2018-06-10T03:16:26.592Z,9.57
2018-06-10T03:18:53.413Z,8.90
2018-06-10T03:21:20.239Z,9.93
2018-06-10T03:23:47.063Z,9.45
2018-06-10T03:26:13.957Z,9.73
2018-06-10T03:28:40.782Z,8.70
2018-06-10T03:31:07.601Z,9.97
2018-06-10T03:33:34.422Z,9.90
2018-06-10T03:36:01.323Z,9.60
2018-06-10T03:38:28.153Z,9.60
2018-06-10T03:40:54.978Z,9.63
2018-06-10T03:43:21.857Z,9.78
2018-06-10T03:45:48.695Z,9.45
2018-06-10T03:48:15.521Z,8.75
2018-06-10T03:50:42.346Z,9.97
2018-06-10T03:53:09.189Z,9.80
2018-06-10T03:55:36.070Z,9.10
2018-06-10T03:58:02.888Z,8.83
2018-06-10T04:00:29.703Z,9.10
2018-06-10T04:02:56.536Z,9.97
2018-06-10T04:05:23.430Z,9.23
2018-06-10T04:07:50.258Z,9.40
2018-06-10T04:10:17.085Z,8.67
2018-06-10T04:12:43.972Z,10.10
2018-06-10T04:15:10.802Z,9.40
2018-06-10T04:17:37.636Z,9.78
2018-06-10T04:20:04.460Z,9.70
2018-06-10T04:22:31.384Z,10.10
2018-06-10T04:24:58.166Z,9.80
2018-06-10T04:27:25.004Z,9.60
2018-06-10T04:29:51.825Z,9.43
2018-06-10T04:32:18.952Z,9.07
2018-06-10T04:34:45.747Z,9.40
2018-06-10T04:37:12.610Z,9.30
2018-06-10T04:39:39.423Z,9.87
2018-06-10T04:42:06.257Z,9.58
2018-06-10T04:44:33.100Z,10.05
2018-06-10T04:46:59.983Z,9.33
2018-06-10T04:49:26.797Z,9.30
2018-06-10T04:51:53.629Z,10.40
2018-06-10T04:54:20.471Z,9.47
2018-06-10T04:56:47.352Z,9.63
2018-06-10T04:59:14.167Z,10.57
2018-06-10T05:01:41.001Z,9.37
2018-06-10T05:04:07.823Z,14.87
2018-06-10T05:06:34.715Z,17.35
2018-06-10T05:09:01.550Z,19.15
2018-06-10T05:11:28.389Z,19.40
2018-06-10T05:13:55.241Z,19.63
2018-06-10T05:16:22.105Z,20.53
2018-06-10T05:18:48.918Z,19.87
2018-06-10T05:21:15.745Z,19.13
2018-06-10T05:23:42.566Z,18.97
2018-06-10T05:26:09.471Z,19.50
2018-06-10T05:28:36.359Z,21.10
2018-06-10T05:31:03.182Z,21.33
2018-06-10T05:33:29.998Z,22.03
2018-06-10T05:35:56.830Z,20.68
2018-06-10T05:38:23.656Z,23.42
2018-06-10T05:40:50.483Z,22.20
2018-06-10T05:43:17.302Z,22.53
2018-06-10T05:45:44.195Z,24.40
2018-06-10T05:48:11.022Z,22.77
2018-06-10T05:50:37.855Z,21.97
2018-06-10T05:53:04.726Z,22.60
2018-06-10T05:55:31.566Z,24.10
2018-06-10T05:57:58.395Z,23.17
2018-06-10T06:00:25.211Z,21.85
2018-06-10T06:02:52.049Z,22.30
2018-06-10T06:05:18.876Z,21.30
2018-06-10T06:07:45.773Z,21.60
2018-06-10T06:10:12.639Z,21.13
2018-06-10T06:12:39.474Z,21.77
2018-06-10T06:15:06.315Z,22.67
2018-06-10T06:17:33.141Z,21.10
2018-06-10T06:19:59.974Z,20.70
2018-06-10T06:22:26.798Z,21.20
2018-06-10T06:24:53.699Z,20.92
2018-06-10T06:27:20.542Z,20.53
2018-06-10T06:29:47.354Z,21.17
2018-06-10T06:32:15.075Z,20.43
2018-06-10T06:34:41.887Z,21.10
2018-06-10T06:37:08.718Z,20.50
2018-06-10T06:39:35.545Z,21.40
2018-06-10T06:42:02.388Z,18.67
2018-06-10T06:44:29.220Z,19.07
2018-06-10T06:46:56.109Z,21.30
2018-06-10T06:49:22.936Z,20.43
2018-06-10T06:51:49.763Z,20.40
2018-06-10T06:54:16.591Z,20.40
2018-06-10T06:56:43.474Z,20.97
2018-06-10T06:59:10.307Z,20.60
2018-06-10T07:01:37.167Z,19.40
2018-06-10T07:04:03.996Z,20.32
2018-06-10T07:06:30.837Z,20.43
2018-06-10T07:08:57.684Z,20.45
2018-06-10T07:11:24.527Z,19.32
2018-06-10T07:13:51.331Z,20.72
2018-06-10T07:16:18.209Z,19.70
2018-06-10T07:18:45.035Z,19.00
2018-06-10T07:21:11.883Z,19.80
2018-06-10T07:23:38.721Z,19.47
2018-06-10T07:26:05.578Z,19.27
2018-06-10T07:28:32.408Z,19.60
2018-06-10T07:30:59.243Z,19.30
2018-06-10T07:33:26.097Z,19.85
2018-06-10T07:35:52.951Z,20.55
2018-06-10T07:38:19.783Z,19.30
2018-06-10T07:40:46.608Z,18.67
2018-06-10T07:43:13.429Z,20.70
2018-06-10T07:45:40.335Z,19.17
2018-06-10T07:48:07.162Z,19.63
2018-06-10T07:50:33.985Z,20.00
2018-06-10T07:53:00.823Z,20.40
2018-06-10T07:55:27.698Z,20.40
2018-06-10T07:57:54.522Z,19.52
2018-06-10T08:00:21.349Z,19.60
2018-06-10T08:02:48.189Z,20.07
2018-06-10T08:05:15.001Z,19.60
2018-06-10T08:07:41.821Z,19.27
2018-06-10T08:10:09.067Z,20.07
2018-06-10T08:12:35.830Z,19.07
2018-06-10T08:15:02.658Z,18.30
2018-06-10T08:17:29.521Z,19.57
2018-06-10T08:19:56.338Z,19.50
2018-06-10T08:22:23.182Z,20.23
2018-06-10T08:24:50.068Z,20.30
2018-06-10T08:27:17.060Z,19.63
2018-06-10T08:29:43.882Z,18.70
2018-06-10T08:32:10.716Z,18.05
2018-06-10T08:34:37.596Z,18.23
2018-06-10T08:37:04.435Z,18.12
2018-06-10T08:39:31.285Z,18.40
2018-06-10T08:41:58.109Z,18.47
2018-06-10T08:44:24.951Z,18.60
2018-06-10T08:46:51.823Z,19.33
2018-06-10T08:49:18.638Z,17.53
2018-06-10T08:51:45.477Z,18.17
2018-06-10T08:54:12.309Z,18.17
2018-06-10T08:56:39.179Z,19.25
2018-06-10T08:59:06.009Z,18.27
2018-06-10T09:01:32.837Z,18.42
2018-06-10T09:03:59.667Z,17.23
2018-06-10T09:06:26.551Z,17.27
2018-06-10T09:08:53.447Z,17.40
2018-06-10T09:11:20.215Z,18.00
2018-06-10T09:13:47.031Z,18.67
2018-06-10T09:16:13.929Z,20.07
2018-06-10T09:18:40.746Z,17.90
2018-06-10T09:21:07.592Z,19.20
2018-06-10T09:23:34.418Z,18.23
2018-06-10T09:26:01.286Z,16.83
2018-06-10T09:28:28.114Z,17.73
2018-06-10T09:30:54.940Z,18.40
2018-06-10T09:33:21.777Z,18.07
2018-06-10T09:35:48.661Z,18.00
2018-06-10T09:38:15.487Z,17.97
2018-06-10T09:40:42.331Z,17.33
2018-06-10T09:43:09.161Z,17.37
2018-06-10T09:45:36.036Z,15.73
2018-06-10T09:48:02.852Z,16.97
2018-06-10T09:50:29.681Z,17.90
2018-06-10T09:52:56.518Z,17.05
2018-06-10T09:55:23.513Z,16.87
2018-06-10T09:57:50.246Z,17.70
2018-06-10T10:00:17.106Z,16.00
2018-06-10T10:02:43.947Z,16.70
2018-06-10T10:05:11.242Z,16.10
2018-06-10T10:07:38.038Z,16.60
2018-06-10T10:10:05.525Z,17.30
2018-06-10T10:12:32.330Z,16.30
2018-06-10T10:14:59.159Z,15.95
2018-06-10T10:17:26.301Z,15.85
2018-06-10T10:19:53.111Z,15.78
2018-06-10T10:22:19.938Z,15.20
2018-06-10T10:24:46.774Z,16.10
2018-06-10T10:27:14.119Z,14.63
2018-06-10T10:29:40.856Z,15.13
2018-06-10T10:32:07.681Z,14.85
2018-06-10T10:34:34.510Z,16.33
2018-06-10T10:37:01.379Z,15.70
2018-06-10T10:39:28.210Z,15.33
2018-06-10T10:41:55.040Z,15.80
2018-06-10T10:44:22.109Z,15.30
2018-06-10T10:46:48.964Z,14.87
2018-06-10T10:49:15.785Z,14.73
2018-06-10T10:51:42.613Z,14.90
2018-06-10T10:54:09.447Z,15.17
2018-06-10T10:56:36.330Z,14.50
2018-06-10T10:59:03.154Z,15.48
2018-06-10T11:01:29.990Z,16.12
2018-06-10T11:03:56.835Z,15.30
2018-06-10T11:06:23.699Z,14.53
2018-06-10T11:08:50.530Z,13.80
2018-06-10T11:11:17.376Z,15.07
2018-06-10T11:13:44.199Z,14.37
2018-06-10T11:16:11.096Z,14.60
2018-06-10T11:18:37.923Z,15.17
2018-06-10T11:21:04.749Z,14.87
2018-06-10T11:23:31.601Z,14.47
2018-06-10T11:25:58.445Z,14.93
2018-06-10T11:28:25.282Z,13.90
2018-06-10T11:30:52.161Z,13.70
2018-06-10T11:33:18.967Z,15.10
2018-06-10T11:35:46.148Z,15.33
2018-06-10T11:38:12.945Z,14.90
2018-06-10T11:40:39.775Z,15.73
2018-06-10T11:43:06.635Z,14.40
2018-06-10T11:45:33.461Z,15.20
2018-06-10T11:48:00.299Z,14.50
2018-06-10T11:50:27.121Z,14.53
2018-06-10T11:52:53.954Z,13.50
2018-06-10T11:55:20.957Z,14.80
2018-06-10T11:57:47.788Z,14.20
2018-06-10T12:00:14.618Z,14.10
2018-06-10T12:02:41.448Z,12.65
2018-06-10T12:05:08.285Z,13.55
2018-06-10T12:07:35.118Z,14.30
2018-06-10T12:10:01.944Z,13.53
2018-06-10T12:12:29.149Z,12.77
2018-06-10T12:14:55.892Z,15.43
2018-06-10T12:17:23.206Z,13.50
2018-06-10T12:19:50.034Z,13.62
2018-06-10T12:22:16.874Z,14.03
2018-06-10T12:24:43.693Z,13.53
2018-06-10T12:27:10.566Z,13.90
2018-06-10T12:29:37.420Z,14.17
2018-06-10T12:32:04.303Z,13.40
2018-06-10T12:34:31.129Z,13.00
2018-06-10T12:36:58.150Z,13.77
2018-06-10T12:39:24.982Z,14.60
2018-06-10T12:41:51.839Z,13.67
2018-06-10T12:44:18.645Z,14.13
2018-06-10T12:46:45.690Z,12.70
2018-06-10T12:49:12.598Z,13.93
2018-06-10T12:51:39.370Z,15.68
2018-06-10T12:54:06.258Z,15.50
2018-06-10T12:56:33.581Z,16.00
2018-06-10T12:59:00.351Z,16.35
2018-06-10T13:01:27.214Z,16.97
2018-06-10T13:03:54.047Z,16.80
2018-06-10T13:06:21.069Z,17.93
2018-06-10T13:08:47.908Z,18.40
2018-06-10T13:11:14.738Z,17.30
2018-06-10T13:13:41.624Z,17.77
2018-06-10T13:16:08.615Z,17.60
2018-06-10T13:18:35.435Z,15.90
2018-06-10T13:21:02.300Z,16.77
2018-06-10T13:23:29.110Z,15.77
2018-06-10T13:25:55.990Z,15.23
2018-06-10T13:28:22.810Z,15.90
2018-06-10T13:30:49.671Z,15.30
2018-06-10T13:33:16.536Z,14.95
2018-06-10T13:35:43.567Z,14.73
2018-06-10T13:38:10.386Z,14.35
2018-06-10T13:40:37.287Z,15.33
2018-06-10T13:43:04.066Z,15.07
2018-06-10T13:45:30.941Z,14.57
2018-06-10T13:47:57.778Z,15.23
2018-06-10T13:50:24.593Z,15.63
2018-06-10T13:52:51.425Z,13.77
2018-06-10T13:55:18.269Z,15.70
2018-06-10T13:57:45.095Z,14.13
2018-06-10T14:00:12.850Z,14.80
2018-06-10T14:02:39.904Z,15.57
2018-06-10T14:05:06.974Z,13.90
2018-06-10T14:07:34.174Z,15.73
2018-06-10T14:10:00.994Z,13.50
2018-06-10T14:12:27.830Z,14.10
2018-06-10T14:14:54.657Z,13.78
2018-06-10T14:17:22.676Z,16.37
2018-06-10T14:19:49.483Z,14.30
2018-06-10T14:22:16.298Z,13.88
2018-06-10T14:24:43.135Z,14.05
2018-06-10T14:27:10.145Z,13.87
2018-06-10T14:29:36.976Z,14.13
2018-06-10T14:32:03.810Z,13.67
2018-06-10T14:34:30.627Z,13.53
2018-06-10T14:36:57.714Z,13.17
2018-06-10T14:39:24.545Z,13.60
2018-06-10T14:41:51.375Z,15.23
2018-06-10T14:44:18.211Z,14.90
2018-06-10T14:46:45.088Z,13.90
2018-06-10T14:49:11.911Z,14.87
2018-06-10T14:51:38.761Z,14.53
2018-06-10T14:54:05.584Z,13.93
2018-06-10T14:56:32.461Z,14.03
2018-06-10T14:58:59.317Z,15.88
2018-06-10T15:01:26.234Z,15.67
2018-06-10T15:03:53.072Z,15.80
2018-06-10T15:06:20.033Z,15.63
2018-06-10T15:08:46.864Z,15.43
2018-06-10T15:11:13.688Z,15.40
2018-06-10T15:13:40.532Z,15.77
2018-06-10T15:16:07.417Z,15.70
2018-06-10T15:18:34.257Z,14.27
2018-06-10T15:21:01.083Z,14.03
2018-06-10T15:23:27.930Z,15.72
2018-06-10T15:25:54.775Z,15.47
2018-06-10T15:28:21.595Z,14.73
2018-06-10T15:30:48.442Z,16.47
2018-06-10T15:33:15.269Z,15.57
2018-06-10T15:35:42.151Z,15.03
2018-06-10T15:38:08.978Z,15.93
2018-06-10T15:40:35.828Z,15.67
2018-06-10T15:43:02.698Z,14.07
2018-06-10T15:45:29.727Z,15.00
2018-06-10T15:47:56.558Z,16.67
2018-06-10T15:50:23.420Z,16.67
2018-06-10T15:52:50.209Z,16.87
2018-06-10T15:55:17.046Z,15.10
2018-06-10T15:57:43.894Z,15.70
2018-06-10T16:00:11.024Z,16.33
2018-06-10T16:02:37.860Z,16.23
2018-06-10T16:05:04.893Z,14.83
2018-06-10T16:07:31.962Z,13.00
2018-06-10T16:09:58.772Z,14.93
2018-06-10T16:12:25.603Z,13.00
2018-06-10T16:14:52.452Z,12.90
2018-06-10T16:17:19.949Z,11.00
2018-06-10T16:19:46.766Z,11.65
2018-06-10T16:22:13.594Z,10.48
2018-06-10T16:24:40.446Z,9.60
2018-06-10T16:27:07.478Z,9.00
2018-06-10T16:29:34.323Z,8.40
2018-06-10T16:32:01.169Z,8.70
2018-06-10T16:34:27.990Z,7.57
2018-06-10T16:36:54.862Z,7.80
2018-06-10T16:39:21.696Z,7.43
2018-06-10T16:41:48.510Z,6.30
2018-06-10T16:44:15.381Z,7.50
2018-06-10T16:46:42.230Z,7.30
2018-06-10T16:49:09.086Z,7.03
2018-06-10T16:51:35.885Z,6.45
2018-06-10T16:54:02.708Z,6.80
2018-06-10T16:56:29.620Z,6.23
2018-06-10T16:58:56.414Z,6.03
2018-06-10T17:01:23.247Z,6.10
2018-06-10T17:03:50.129Z,5.93
2018-06-10T17:06:16.972Z,6.20
2018-06-10T17:08:43.807Z,6.07
2018-06-10T17:11:10.650Z,6.55
2018-06-10T17:13:37.484Z,6.00
2018-06-10T17:16:04.346Z,5.78
2018-06-10T17:18:31.172Z,6.77
2018-06-10T17:20:58.022Z,6.53
2018-06-10T17:23:24.844Z,6.30
2018-06-10T17:25:51.719Z,6.93
2018-06-10T17:28:18.580Z,7.13
2018-06-10T17:30:46.206Z,7.30
2018-06-10T17:33:13.037Z,7.25
2018-06-10T17:35:39.943Z,6.72
2018-06-10T17:38:06.733Z,7.77
2018-06-10T17:40:33.575Z,7.37
2018-06-10T17:43:00.891Z,8.00
2018-06-10T17:45:27.897Z,7.30
2018-06-10T17:47:54.750Z,7.47
2018-06-10T17:50:21.582Z,7.03
2018-06-10T17:52:48.871Z,7.33
2018-06-10T17:55:15.697Z,7.30
2018-06-10T17:57:42.524Z,6.92
2018-06-10T18:00:09.338Z,7.12
2018-06-10T18:02:36.187Z,7.60
2018-06-10T18:05:03.028Z,7.30
2018-06-10T18:07:30.074Z,7.10
2018-06-10T18:09:56.875Z,7.13
2018-06-10T18:12:23.706Z,7.47
2018-06-10T18:14:50.623Z,7.73
2018-06-10T18:17:17.482Z,6.90
2018-06-10T18:19:44.292Z,7.50
2018-06-10T18:22:11.155Z,6.67
2018-06-10T18:24:37.978Z,8.03
2018-06-10T18:27:04.831Z,6.50
2018-06-10T18:29:31.659Z,6.60
2018-06-10T18:31:58.496Z,6.60
2018-06-10T18:34:25.322Z,6.70
2018-06-10T18:36:52.214Z,7.77
2018-06-10T18:39:19.048Z,6.63
2018-06-10T18:41:45.933Z,6.70
2018-06-10T18:44:12.720Z,6.20
2018-06-10T18:46:39.674Z,7.07
2018-06-10T18:49:06.510Z,7.10
2018-06-10T18:51:33.332Z,7.77
2018-06-10T18:54:00.193Z,6.47
2018-06-10T18:56:27.196Z,5.78
2018-06-10T18:58:53.995Z,7.20
2018-06-10T19:01:21.294Z,6.40
2018-06-10T19:03:48.033Z,7.50
2018-06-10T19:06:14.945Z,6.40
2018-06-10T19:08:41.771Z,7.00
2018-06-10T19:11:08.611Z,6.15
2018-06-10T19:13:35.508Z,6.90
2018-06-10T19:16:03.371Z,7.33
2018-06-10T19:18:30.176Z,7.97
2018-06-10T19:20:57.653Z,7.53
2018-06-10T19:23:24.517Z,8.13
2018-06-10T19:25:51.547Z,7.62
2018-06-10T19:28:18.410Z,8.00
2018-06-10T19:30:45.249Z,7.25
2018-06-10T19:33:12.119Z,7.65
2018-06-10T19:35:39.343Z,7.30
2018-06-10T19:38:06.657Z,7.10
2018-06-10T19:40:33.488Z,7.27
2018-06-10T19:43:00.313Z,7.15
2018-06-10T19:45:28.061Z,6.83
2018-06-10T19:47:54.881Z,7.60
2018-06-10T19:50:21.729Z,6.72
2018-06-10T19:52:48.927Z,7.45
2018-06-10T19:55:15.648Z,7.03
2018-06-10T19:57:42.476Z,6.15
2018-06-10T20:00:09.374Z,6.47
2018-06-10T20:02:36.218Z,6.60
2018-06-10T20:05:03.027Z,7.10
2018-06-10T20:07:29.902Z,7.20
2018-06-10T20:09:56.737Z,7.90
2018-06-10T20:12:23.550Z,7.20
2018-06-10T20:14:50.418Z,7.40
2018-06-10T20:17:17.279Z,7.47
2018-06-10T20:19:44.114Z,5.70
2018-06-10T20:22:10.950Z,6.62
2018-06-10T20:24:37.797Z,7.45
2018-06-10T20:27:04.648Z,7.05
2018-06-10T20:29:31.462Z,6.77
2018-06-10T20:31:58.283Z,6.40
2018-06-10T20:34:25.117Z,5.80
2018-06-10T20:36:52.014Z,6.80
2018-06-10T20:39:18.830Z,6.70
2018-06-10T20:41:45.657Z,6.37
2018-06-10T20:44:12.581Z,6.40
2018-06-10T20:46:39.407Z,6.47
2018-06-10T20:49:06.251Z,6.37
2018-06-10T20:51:33.079Z,6.63
2018-06-10T20:53:59.918Z,6.13
2018-06-10T20:56:26.766Z,5.87
2018-06-10T20:58:53.590Z,6.77
2018-06-10T21:01:20.445Z,5.80
2018-06-10T21:03:47.334Z,6.23
2018-06-10T21:06:14.335Z,6.27
2018-06-10T21:08:41.178Z,6.00
2018-06-10T21:11:08.309Z,5.87
2018-06-10T21:13:35.095Z,5.97
2018-06-10T21:16:02.114Z,5.43
2018-06-10T21:18:28.972Z,6.20
2018-06-10T21:20:55.867Z,5.40
2018-06-10T21:23:22.666Z,6.05
2018-06-10T21:25:49.706Z,6.07
2018-06-10T21:28:16.552Z,5.80
2018-06-10T21:30:43.366Z,5.53
2018-06-10T21:33:10.185Z,5.80
2018-06-10T21:35:38.085Z,5.63
2018-06-10T21:38:04.937Z,5.87
2018-06-10T21:40:32.791Z,5.92
2018-06-10T21:42:59.591Z,5.77
2018-06-10T21:45:26.490Z,5.90
2018-06-10T21:47:53.336Z,5.37
2018-06-10T21:50:20.173Z,5.15
2018-06-10T21:52:46.993Z,5.97
2018-06-10T21:55:13.918Z,5.77
2018-06-10T21:57:41.947Z,5.57
2018-06-10T22:00:08.942Z,5.67
2018-06-10T22:02:35.756Z,5.33
2018-06-10T22:05:02.653Z,5.40
2018-06-10T22:07:29.470Z,5.10
2018-06-10T22:09:56.350Z,5.80
2018-06-10T22:12:23.178Z,6.27
2018-06-10T22:14:50.014Z,5.43
2018-06-10T22:17:16.869Z,5.70
2018-06-10T22:19:43.761Z,5.60
2018-06-10T22:22:10.559Z,5.60
2018-06-10T22:24:37.421Z,5.40
2018-06-10T22:27:04.462Z,5.33
2018-06-10T22:29:31.276Z,5.23
2018-06-10T22:31:58.201Z,5.12
2018-06-10T22:34:24.930Z,5.15
2018-06-10T22:36:51.884Z,5.70
2018-06-10T22:39:18.649Z,5.60
2018-06-10T22:41:45.477Z,5.50
2018-06-10T22:44:12.295Z,5.10
2018-06-10T22:46:39.187Z,5.57
2018-06-10T22:49:06.012Z,5.20
2018-06-10T22:51:32.876Z,5.10
2018-06-10T22:53:59.704Z,4.80
2018-06-10T22:56:26.518Z,5.33
2018-06-10T22:58:53.404Z,5.30
2018-06-10T23:01:20.215Z,5.60
2018-06-10T23:03:47.089Z,5.43
2018-06-10T23:06:13.938Z,5.50
2018-06-10T23:08:40.754Z,4.67
2018-06-10T23:11:07.578Z,5.20
2018-06-10T23:13:34.406Z,4.70
2018-06-10T23:16:01.308Z,5.07
2018-06-10T23:18:28.163Z,4.80
2018-06-10T23:20:54.978Z,4.72
2018-06-10T23:23:21.798Z,5.20
2018-06-10T23:25:48.679Z,5.20
2018-06-10T23:28:15.515Z,5.35
2018-06-10T23:30:42.346Z,5.05
2018-06-10T23:33:09.176Z,4.93
2018-06-10T23:35:36.048Z,5.20
2018-06-10T23:38:02.876Z,4.80
2018-06-10T23:40:29.701Z,5.37
2018-06-10T23:42:56.526Z,4.60
2018-06-10T23:45:23.418Z,5.10
2018-06-10T23:47:50.225Z,5.03
2018-06-10T23:50:17.050Z,5.00
2018-06-10T23:52:43.895Z,5.17
2018-06-10T23:55:10.717Z,4.95
2018-06-10T23:57:37.533Z,5.00
